createdAt,value
2018-11-28T00:00:31.732Z,27.48
2018-11-28T00:01:09.464Z,27.50
2018-11-28T00:01:47.476Z,27.51
2018-11-28T00:02:25.236Z,27.52
2018-11-28T00:03:03.795Z,27.54
2018-11-28T00:03:41.764Z,27.57
2018-11-28T00:04:19.506Z,27.59
2018-11-28T00:04:57.180Z,27.62
2018-11-28T00:05:35.090Z,27.63
2018-11-28T00:06:12.895Z,27.66
2018-11-28T00:06:50.752Z,27.67
2018-11-28T00:07:28.541Z,27.71
2018-11-28T00:08:06.396Z,27.72
2018-11-28T00:08:44.171Z,27.74
2018-11-28T00:09:22.045Z,27.76
2018-11-28T00:09:59.752Z,27.79
2018-11-28T00:10:37.469Z,27.82
2018-11-28T00:11:15.093Z,27.83
2018-11-28T00:11:52.898Z,27.85
2018-11-28T00:12:30.612Z,27.89
2018-11-28T00:13:08.388Z,27.92
2018-11-28T00:13:46.168Z,27.93
2018-11-28T00:14:24.007Z,27.96
2018-11-28T00:15:02.038Z,27.97
2018-11-28T00:15:39.866Z,27.99
2018-11-28T00:16:17.577Z,28.01
2018-11-28T00:16:55.285Z,28.02
2018-11-28T00:17:33.078Z,28.02
2018-11-28T00:18:10.883Z,28.05
2018-11-28T00:18:48.887Z,28.06
2018-11-28T00:19:26.782Z,28.06
2018-11-28T00:20:04.688Z,28.07
2018-11-28T00:20:42.432Z,28.07
2018-11-28T00:21:20.178Z,28.09
2018-11-28T00:21:58.078Z,28.10
2018-11-28T00:22:35.811Z,28.10
2018-11-28T00:23:13.615Z,28.11
2018-11-28T00:23:51.419Z,28.11
2018-11-28T00:24:29.127Z,28.12
2018-11-28T00:25:07.056Z,28.12
2018-11-28T00:25:44.933Z,28.13
2018-11-28T00:26:22.690Z,28.13
2018-11-28T00:27:00.411Z,28.13
2018-11-28T00:27:38.111Z,28.14
2018-11-28T00:28:16.115Z,28.14
2018-11-28T00:28:53.861Z,28.14
2018-11-28T00:29:31.481Z,28.13
2018-11-28T00:30:21.365Z,28.13
2018-11-28T00:30:59.257Z,28.13
2018-11-28T00:31:37.201Z,28.13
2018-11-28T00:32:15.174Z,28.13
2018-11-28T00:32:53.025Z,28.13
2018-11-28T00:33:30.765Z,28.13
2018-11-28T00:34:08.895Z,28.08
2018-11-28T00:34:46.637Z,28.12
2018-11-28T00:35:27.652Z,28.12
2018-11-28T00:36:05.456Z,28.12
2018-11-28T00:36:43.351Z,28.11
2018-11-28T00:37:21.062Z,28.11
2018-11-28T00:37:58.817Z,28.10
2018-11-28T00:38:36.561Z,28.10
2018-11-28T00:39:14.447Z,28.11
2018-11-28T00:39:52.415Z,28.09
2018-11-28T00:40:30.134Z,28.09
2018-11-28T00:41:08.149Z,28.09
2018-11-28T00:41:45.916Z,28.09
2018-11-28T00:42:30.910Z,28.09
2018-11-28T00:43:08.715Z,28.09
2018-11-28T00:43:46.432Z,28.10
2018-11-28T00:44:24.228Z,28.10
2018-11-28T00:45:02.173Z,28.11
2018-11-28T00:45:39.974Z,28.11
2018-11-28T00:46:17.931Z,28.12
2018-11-28T00:46:55.699Z,28.14
2018-11-28T00:47:33.433Z,28.14
2018-11-28T00:48:11.367Z,28.15
2018-11-28T00:48:49.159Z,28.17
2018-11-28T00:49:26.952Z,28.18
2018-11-28T00:50:04.926Z,28.21
2018-11-28T00:50:42.751Z,28.23
2018-11-28T00:51:20.523Z,28.23
2018-11-28T00:51:58.462Z,28.23
2018-11-28T00:52:36.355Z,28.23
2018-11-28T00:53:14.504Z,28.27
2018-11-28T00:53:52.344Z,28.32
2018-11-28T00:54:30.251Z,28.32
2018-11-28T00:55:08.802Z,28.34
2018-11-28T00:55:48.562Z,28.36
2018-11-28T00:56:25.295Z,28.36
2018-11-28T00:57:03.104Z,28.36
2018-11-28T00:57:41.012Z,28.38
2018-11-28T00:58:19.308Z,28.35
2018-11-28T00:58:57.249Z,28.43
2018-11-28T00:59:35.116Z,28.44
2018-11-28T01:00:31.188Z,28.44
2018-11-28T01:01:09.010Z,28.45
2018-11-28T01:01:46.927Z,28.48
2018-11-28T01:02:24.824Z,28.49
2018-11-28T01:03:02.637Z,28.54
2018-11-28T01:03:40.524Z,28.54
2018-11-28T01:04:18.298Z,28.64
2018-11-28T01:04:56.171Z,28.67
2018-11-28T01:05:33.778Z,28.72
2018-11-28T01:06:11.853Z,28.95
2018-11-28T01:06:49.624Z,29.03
2018-11-28T01:07:27.296Z,29.03
2018-11-28T01:08:05.255Z,29.08
2018-11-28T01:08:43.073Z,29.16
2018-11-28T01:09:20.868Z,29.22
2018-11-28T01:09:58.593Z,29.24
2018-11-28T01:10:36.494Z,29.40
2018-11-28T01:11:14.546Z,29.44
2018-11-28T01:11:52.522Z,29.50
2018-11-28T01:12:30.298Z,29.50
2018-11-28T01:13:08.124Z,29.61
2018-11-28T01:13:45.952Z,29.61
2018-11-28T01:14:23.800Z,29.67
2018-11-28T01:15:01.695Z,29.72
2018-11-28T01:15:39.458Z,29.72
2018-11-28T01:16:17.227Z,29.88
2018-11-28T01:16:55.088Z,29.93
2018-11-28T01:17:32.964Z,29.93
2018-11-28T01:18:11.319Z,29.94
2018-11-28T01:18:48.996Z,30.03
2018-11-28T01:19:27.150Z,30.03
2018-11-28T01:20:05.004Z,30.05
2018-11-28T01:20:42.757Z,30.05
2018-11-28T01:21:20.538Z,30.14
2018-11-28T01:21:58.475Z,30.18
2018-11-28T01:22:36.355Z,30.23
2018-11-28T01:23:14.170Z,30.28
2018-11-28T01:23:52.081Z,30.32
2018-11-28T01:24:29.991Z,30.38
2018-11-28T01:25:08.977Z,30.42
2018-11-28T01:25:46.674Z,30.46
2018-11-28T01:26:24.513Z,30.49
2018-11-28T01:27:02.469Z,30.53
2018-11-28T01:27:40.269Z,30.52
2018-11-28T01:28:18.213Z,30.58
2018-11-28T01:28:56.054Z,30.61
2018-11-28T01:29:34.003Z,30.65
2018-11-28T01:30:30.122Z,30.70
2018-11-28T01:31:08.233Z,30.74
2018-11-28T01:31:45.862Z,30.81
2018-11-28T01:32:23.768Z,30.86
2018-11-28T01:33:01.363Z,30.88
2018-11-28T01:33:39.319Z,30.90
2018-11-28T01:34:17.292Z,30.92
2018-11-28T01:34:55.187Z,30.92
2018-11-28T01:35:33.320Z,30.92
2018-11-28T01:36:11.328Z,30.92
2018-11-28T01:36:49.262Z,30.94
2018-11-28T01:37:26.984Z,30.94
2018-11-28T01:38:04.727Z,30.96
2018-11-28T01:38:42.719Z,30.97
2018-11-28T01:39:20.559Z,31.02
2018-11-28T01:39:58.535Z,31.05
2018-11-28T01:40:36.249Z,31.07
2018-11-28T01:41:14.010Z,31.07
2018-11-28T01:41:51.862Z,31.08
2018-11-28T01:42:29.685Z,31.10
2018-11-28T01:43:07.399Z,31.14
2018-11-28T01:43:45.380Z,31.13
2018-11-28T01:44:23.235Z,31.07
2018-11-28T01:45:01.189Z,31.05
2018-11-28T01:45:39.035Z,31.06
2018-11-28T01:46:16.789Z,31.03
2018-11-28T01:46:54.431Z,31.00
2018-11-28T01:47:32.300Z,30.98
2018-11-28T01:48:10.080Z,30.96
2018-11-28T01:48:47.831Z,30.94
2018-11-28T01:49:25.624Z,30.92
2018-11-28T01:50:03.479Z,30.90
2018-11-28T01:50:41.587Z,30.93
2018-11-28T01:51:19.370Z,30.96
2018-11-28T01:51:57.283Z,30.98
2018-11-28T01:52:35.105Z,31.05
2018-11-28T01:53:12.898Z,31.09
2018-11-28T01:53:50.769Z,31.16
2018-11-28T01:54:28.691Z,31.21
2018-11-28T01:55:06.458Z,31.25
2018-11-28T01:55:44.260Z,31.26
2018-11-28T01:56:22.011Z,31.26
2018-11-28T01:56:59.774Z,31.27
2018-11-28T01:57:37.619Z,31.30
2018-11-28T01:58:15.613Z,31.33
2018-11-28T01:58:53.504Z,31.36
2018-11-28T01:59:31.390Z,31.41
2018-11-28T02:00:13.541Z,31.45
2018-11-28T02:00:51.337Z,31.49
2018-11-28T02:01:29.255Z,31.52
2018-11-28T02:02:09.770Z,31.56
2018-11-28T02:02:47.718Z,31.59
2018-11-28T02:03:25.447Z,31.61
2018-11-28T02:04:03.104Z,31.67
2018-11-28T02:04:40.954Z,31.71
2018-11-28T02:05:18.864Z,31.75
2018-11-28T02:05:56.873Z,31.80
2018-11-28T02:06:34.656Z,31.85
2018-11-28T02:07:12.461Z,31.90
2018-11-28T02:07:53.207Z,31.96
2018-11-28T02:08:30.990Z,32.04
2018-11-28T02:09:10.289Z,32.09
2018-11-28T02:09:48.750Z,32.13
2018-11-28T02:10:26.551Z,32.15
2018-11-28T02:11:04.339Z,32.18
2018-11-28T02:11:42.203Z,32.22
2018-11-28T02:12:19.936Z,32.25
2018-11-28T02:13:02.393Z,32.29
2018-11-28T02:13:40.329Z,32.31
2018-11-28T02:14:18.105Z,32.36
2018-11-28T02:14:55.743Z,32.38
2018-11-28T02:15:33.635Z,32.40
2018-11-28T02:16:11.420Z,32.41
2018-11-28T02:16:51.722Z,32.43
2018-11-28T02:17:29.485Z,32.45
2018-11-28T02:18:07.413Z,32.47
2018-11-28T02:18:45.283Z,32.50
2018-11-28T02:19:23.132Z,32.46
2018-11-28T02:20:01.020Z,32.43
2018-11-28T02:20:38.828Z,32.43
2018-11-28T02:21:16.526Z,32.45
2018-11-28T02:21:54.419Z,32.48
2018-11-28T02:22:32.260Z,32.46
2018-11-28T02:23:10.364Z,32.50
2018-11-28T02:23:48.176Z,32.53
2018-11-28T02:24:26.493Z,32.51
2018-11-28T02:25:04.324Z,32.52
2018-11-28T02:25:42.048Z,32.52
2018-11-28T02:26:19.760Z,32.54
2018-11-28T02:26:57.418Z,32.55
2018-11-28T02:27:35.209Z,32.57
2018-11-28T02:28:12.987Z,32.59
2018-11-28T02:28:50.731Z,32.61
2018-11-28T02:29:28.510Z,32.58
2018-11-28T02:30:06.763Z,32.55
2018-11-28T02:30:44.564Z,32.58
2018-11-28T02:31:22.356Z,32.58
2018-11-28T02:32:00.126Z,32.63
2018-11-28T02:32:37.873Z,32.63
2018-11-28T02:33:15.805Z,32.67
2018-11-28T02:33:53.749Z,32.61
2018-11-28T02:34:31.512Z,32.63
2018-11-28T02:35:10.700Z,32.59
2018-11-28T02:35:48.556Z,32.59
2018-11-28T02:36:27.488Z,32.58
2018-11-28T02:37:05.182Z,32.61
2018-11-28T02:37:43.316Z,32.65
2018-11-28T02:38:20.966Z,32.67
2018-11-28T02:38:58.664Z,32.65
2018-11-28T02:39:36.480Z,32.68
2018-11-28T02:40:15.360Z,32.68
2018-11-28T02:40:53.158Z,32.69
2018-11-28T02:41:30.832Z,32.65
2018-11-28T02:42:08.726Z,32.65
2018-11-28T02:42:46.556Z,32.66
2018-11-28T02:43:24.413Z,32.67
2018-11-28T02:44:02.348Z,32.69
2018-11-28T02:44:40.295Z,32.65
2018-11-28T02:45:24.362Z,32.59
2018-11-28T02:46:29.677Z,32.53
2018-11-28T02:47:07.615Z,32.55
2018-11-28T02:47:45.865Z,32.55
2018-11-28T02:48:23.783Z,32.58
2018-11-28T02:49:01.724Z,32.61
2018-11-28T02:49:39.605Z,32.61
2018-11-28T02:50:17.597Z,32.64
2018-11-28T02:50:55.441Z,32.68
2018-11-28T02:51:33.153Z,32.72
2018-11-28T02:52:10.947Z,32.73
2018-11-28T02:52:48.851Z,32.74
2018-11-28T02:53:26.829Z,32.78
2018-11-28T02:54:04.605Z,32.84
2018-11-28T02:54:42.607Z,32.89
2018-11-28T02:55:21.267Z,32.96
2018-11-28T02:55:59.170Z,33.01
2018-11-28T02:56:37.103Z,33.08
2018-11-28T02:57:14.877Z,33.15
2018-11-28T02:57:53.242Z,33.18
2018-11-28T02:58:30.927Z,33.19
2018-11-28T02:59:08.606Z,33.22
2018-11-28T02:59:46.458Z,33.11
2018-11-28T03:00:28.019Z,33.09
2018-11-28T03:01:05.955Z,33.07
2018-11-28T03:01:43.837Z,33.03
2018-11-28T03:02:21.506Z,32.99
2018-11-28T03:02:59.377Z,32.92
2018-11-28T03:03:37.069Z,32.85
2018-11-28T03:04:14.969Z,32.82
2018-11-28T03:04:52.865Z,32.83
2018-11-28T03:05:30.918Z,32.85
2018-11-28T03:06:08.973Z,32.89
2018-11-28T03:06:46.907Z,32.95
2018-11-28T03:07:25.025Z,33.00
2018-11-28T03:08:02.844Z,33.03
2018-11-28T03:08:40.776Z,33.01
2018-11-28T03:09:18.560Z,33.03
2018-11-28T03:09:56.431Z,33.05
2018-11-28T03:10:34.305Z,33.06
2018-11-28T03:11:12.330Z,33.12
2018-11-28T03:11:50.178Z,33.08
2018-11-28T03:12:28.178Z,33.06
2018-11-28T03:13:06.021Z,32.99
2018-11-28T03:13:43.657Z,32.97
2018-11-28T03:14:21.545Z,33.08
2018-11-28T03:14:59.409Z,33.11
2018-11-28T03:15:40.920Z,33.05
2018-11-28T03:16:21.577Z,33.02
2018-11-28T03:16:59.296Z,33.05
2018-11-28T03:17:37.087Z,33.04
2018-11-28T03:18:14.764Z,33.08
2018-11-28T03:18:52.926Z,33.10
2018-11-28T03:19:30.804Z,33.17
2018-11-28T03:20:09.717Z,33.17
2018-11-28T03:20:47.785Z,33.14
2018-11-28T03:21:25.512Z,33.18
2018-11-28T03:22:03.273Z,33.23
2018-11-28T03:22:41.050Z,33.25
2018-11-28T03:23:18.975Z,33.30
2018-11-28T03:23:56.989Z,33.34
2018-11-28T03:24:34.861Z,33.38
2018-11-28T03:25:16.173Z,33.39
2018-11-28T03:25:53.889Z,33.40
2018-11-28T03:26:31.763Z,33.43
2018-11-28T03:27:09.725Z,33.46
2018-11-28T03:27:47.700Z,33.44
2018-11-28T03:28:25.587Z,33.38
2018-11-28T03:29:03.322Z,33.43
2018-11-28T03:29:41.228Z,33.47
2018-11-28T03:30:19.338Z,33.42
2018-11-28T03:30:57.310Z,33.36
2018-11-28T03:31:35.069Z,33.32
2018-11-28T03:32:13.021Z,33.36
2018-11-28T03:32:50.761Z,33.37
2018-11-28T03:33:28.677Z,33.39
2018-11-28T03:34:06.369Z,33.43
2018-11-28T03:34:45.590Z,33.45
2018-11-28T03:35:22.809Z,33.51
2018-11-28T03:36:00.800Z,33.55
2018-11-28T03:36:38.758Z,33.58
2018-11-28T03:37:16.726Z,33.60
2018-11-28T03:37:54.465Z,33.62
2018-11-28T03:38:32.344Z,33.61
2018-11-28T03:39:12.612Z,33.58
2018-11-28T03:39:50.427Z,33.55
2018-11-28T03:40:28.245Z,33.56
2018-11-28T03:41:06.166Z,33.61
2018-11-28T03:41:43.932Z,33.64
2018-11-28T03:42:21.945Z,33.64
2018-11-28T03:42:59.831Z,33.65
2018-11-28T03:43:37.915Z,33.66
2018-11-28T03:44:15.859Z,33.67
2018-11-28T03:44:53.711Z,33.67
2018-11-28T03:45:31.581Z,33.68
2018-11-28T03:46:09.670Z,33.70
2018-11-28T03:46:47.593Z,33.69
2018-11-28T03:47:25.424Z,33.69
2018-11-28T03:48:03.169Z,33.68
2018-11-28T03:48:41.049Z,33.64
2018-11-28T03:49:18.904Z,33.67
2018-11-28T03:49:56.694Z,33.68
2018-11-28T03:50:34.461Z,33.68
2018-11-28T03:51:12.242Z,33.69
2018-11-28T03:51:50.011Z,33.68
2018-11-28T03:52:27.763Z,33.70
2018-11-28T03:53:05.464Z,33.68
2018-11-28T03:53:45.950Z,33.70
2018-11-28T03:54:23.894Z,33.73
2018-11-28T03:55:01.665Z,33.74
2018-11-28T03:55:39.607Z,33.70
2018-11-28T03:56:17.500Z,33.73
2018-11-28T03:56:55.418Z,33.68
2018-11-28T03:57:33.342Z,33.71
2018-11-28T03:58:11.215Z,33.71
2018-11-28T03:58:48.967Z,33.76
2018-11-28T03:59:26.826Z,33.78
2018-11-28T04:00:04.720Z,33.80
2018-11-28T04:00:42.610Z,33.83
2018-11-28T04:01:20.352Z,33.84
2018-11-28T04:01:58.065Z,33.80
2018-11-28T04:02:35.802Z,33.81
2018-11-28T04:03:13.532Z,33.82
2018-11-28T04:03:51.249Z,33.82
2018-11-28T04:04:31.217Z,33.74
2018-11-28T04:05:09.280Z,33.64
2018-11-28T04:05:47.091Z,33.56
2018-11-28T04:06:24.845Z,33.51
2018-11-28T04:07:02.822Z,33.41
2018-11-28T04:07:40.735Z,33.38
2018-11-28T04:08:18.618Z,33.39
2018-11-28T04:08:56.638Z,33.43
2018-11-28T04:09:34.562Z,33.48
2018-11-28T04:10:16.255Z,33.50
2018-11-28T04:10:54.554Z,33.55
2018-11-28T04:11:32.336Z,33.60
2018-11-28T04:12:10.500Z,33.62
2018-11-28T04:12:48.593Z,33.66
2018-11-28T04:13:26.558Z,33.71
2018-11-28T04:14:04.303Z,33.82
2018-11-28T04:14:42.121Z,33.83
2018-11-28T04:15:28.072Z,33.88
2018-11-28T04:16:06.152Z,33.88
2018-11-28T04:16:43.926Z,33.88
2018-11-28T04:17:21.734Z,33.91
2018-11-28T04:17:59.452Z,33.84
2018-11-28T04:18:37.338Z,33.82
2018-11-28T04:19:15.209Z,33.76
2018-11-28T04:19:52.946Z,33.66
2018-11-28T04:20:30.658Z,33.57
2018-11-28T04:21:08.785Z,33.52
2018-11-28T04:21:46.512Z,33.40
2018-11-28T04:22:24.421Z,33.37
2018-11-28T04:23:02.291Z,33.34
2018-11-28T04:23:40.120Z,33.31
2018-11-28T04:24:18.037Z,33.31
2018-11-28T04:24:55.934Z,33.31
2018-11-28T04:25:33.875Z,33.33
2018-11-28T04:26:11.775Z,33.32
2018-11-28T04:26:49.472Z,33.33
2018-11-28T04:27:27.190Z,33.36
2018-11-28T04:28:04.947Z,33.45
2018-11-28T04:28:42.904Z,33.54
2018-11-28T04:29:20.691Z,33.59
2018-11-28T04:29:58.718Z,33.64
2018-11-28T04:30:36.568Z,33.67
2018-11-28T04:31:14.411Z,33.70
2018-11-28T04:31:52.248Z,33.71
2018-11-28T04:32:30.326Z,33.77
2018-11-28T04:33:08.163Z,33.80
2018-11-28T04:33:45.936Z,33.83
2018-11-28T04:34:23.777Z,33.79
2018-11-28T04:35:01.679Z,33.83
2018-11-28T04:35:39.597Z,33.87
2018-11-28T04:36:17.325Z,33.90
2018-11-28T04:36:55.062Z,33.87
2018-11-28T04:37:32.924Z,33.92
2018-11-28T04:38:10.828Z,33.92
2018-11-28T04:38:48.573Z,33.91
2018-11-28T04:39:26.523Z,33.92
2018-11-28T04:40:04.239Z,33.94
2018-11-28T04:40:42.189Z,33.95
2018-11-28T04:41:20.083Z,33.96
2018-11-28T04:41:58.004Z,33.95
2018-11-28T04:42:36.024Z,33.99
2018-11-28T04:43:13.754Z,33.95
2018-11-28T04:43:51.494Z,33.95
2018-11-28T04:44:29.246Z,33.95
2018-11-28T04:45:07.292Z,33.92
2018-11-28T04:45:45.210Z,33.91
2018-11-28T04:46:23.126Z,33.92
2018-11-28T04:47:00.951Z,33.93
2018-11-28T04:47:38.826Z,33.93
2018-11-28T04:48:16.814Z,33.92
2018-11-28T04:48:54.723Z,33.91
2018-11-28T04:49:32.629Z,33.90
2018-11-28T04:50:11.747Z,33.89
2018-11-28T04:50:49.825Z,33.92
2018-11-28T04:51:27.645Z,33.93
2018-11-28T04:52:05.481Z,33.92
2018-11-28T04:52:43.256Z,33.92
2018-11-28T04:53:21.037Z,33.90
2018-11-28T04:53:58.763Z,33.86
2018-11-28T04:54:36.628Z,33.77
2018-11-28T04:55:18.145Z,33.75
2018-11-28T04:55:55.828Z,33.83
2018-11-28T04:56:33.705Z,33.89
2018-11-28T04:57:11.633Z,33.92
2018-11-28T04:57:49.821Z,33.93
2018-11-28T04:58:27.554Z,33.93
2018-11-28T04:59:05.314Z,33.91
2018-11-28T04:59:42.958Z,33.95
2018-11-28T05:00:30.019Z,33.93
2018-11-28T05:01:07.979Z,33.90
2018-11-28T05:01:45.711Z,33.95
2018-11-28T05:02:23.766Z,33.97
2018-11-28T05:03:01.987Z,33.98
2018-11-28T05:03:39.968Z,33.97
2018-11-28T05:04:18.308Z,34.01
2018-11-28T05:04:56.484Z,34.03
2018-11-28T05:05:34.411Z,34.00
2018-11-28T05:06:12.232Z,34.01
2018-11-28T05:07:23.408Z,34.04
2018-11-28T05:08:01.337Z,34.05
2018-11-28T05:08:39.193Z,34.05
2018-11-28T05:09:16.988Z,34.06
2018-11-28T05:09:54.905Z,34.08
2018-11-28T05:10:33.087Z,34.08
2018-11-28T05:11:10.986Z,34.10
2018-11-28T05:11:48.898Z,34.13
2018-11-28T05:12:26.831Z,34.14
2018-11-28T05:13:04.811Z,34.14
2018-11-28T05:13:42.648Z,34.16
2018-11-28T05:14:20.516Z,34.17
2018-11-28T05:14:58.624Z,34.19
2018-11-28T05:15:36.952Z,34.20
2018-11-28T05:16:14.875Z,34.22
2018-11-28T05:16:52.824Z,34.24
2018-11-28T05:17:30.569Z,34.25
2018-11-28T05:18:08.282Z,34.27
2018-11-28T05:18:46.153Z,34.24
2018-11-28T05:19:24.116Z,34.27
2018-11-28T05:20:02.006Z,34.29
2018-11-28T05:20:39.783Z,34.28
2018-11-28T05:21:17.560Z,34.30
2018-11-28T05:21:55.479Z,34.31
2018-11-28T05:22:33.301Z,34.30
2018-11-28T05:23:11.797Z,34.35
2018-11-28T05:23:49.791Z,34.34
2018-11-28T05:24:27.985Z,34.34
2018-11-28T05:25:05.991Z,34.35
2018-11-28T05:25:44.063Z,34.36
2018-11-28T05:26:22.166Z,34.32
2018-11-28T05:27:00.082Z,34.34
2018-11-28T05:27:38.187Z,34.35
2018-11-28T05:28:16.309Z,34.38
2018-11-28T05:28:54.130Z,34.38
2018-11-28T05:29:32.134Z,34.42
2018-11-28T05:30:12.181Z,34.42
2018-11-28T05:30:49.952Z,34.45
2018-11-28T05:31:27.957Z,34.45
2018-11-28T05:32:05.942Z,34.46
2018-11-28T05:32:43.881Z,34.47
2018-11-28T05:33:21.698Z,34.49
2018-11-28T05:33:59.617Z,34.49
2018-11-28T05:34:37.314Z,34.50
2018-11-28T05:35:33.806Z,34.51
2018-11-28T05:36:11.719Z,34.52
2018-11-28T05:36:49.808Z,34.49
2018-11-28T05:37:27.722Z,34.51
2018-11-28T05:38:06.780Z,34.50
2018-11-28T05:38:44.536Z,34.50
2018-11-28T05:39:22.354Z,34.51
2018-11-28T05:40:00.034Z,34.50
2018-11-28T05:40:38.188Z,34.50
2018-11-28T05:41:15.852Z,34.45
2018-11-28T05:41:53.795Z,34.44
2018-11-28T05:42:31.559Z,34.46
2018-11-28T05:43:09.403Z,34.46
2018-11-28T05:43:47.248Z,34.45
2018-11-28T05:44:25.212Z,34.47
2018-11-28T05:45:03.107Z,34.48
2018-11-28T05:45:41.023Z,34.51
2018-11-28T05:46:18.898Z,34.52
2018-11-28T05:46:56.851Z,34.49
2018-11-28T05:47:34.538Z,34.49
2018-11-28T05:48:12.215Z,34.46
2018-11-28T05:48:52.554Z,34.45
2018-11-28T05:49:30.591Z,34.46
2018-11-28T05:50:10.224Z,34.44
2018-11-28T05:50:48.136Z,34.42
2018-11-28T05:51:25.855Z,34.42
2018-11-28T05:52:03.743Z,34.45
2018-11-28T05:52:41.779Z,34.46
2018-11-28T05:53:19.507Z,34.46
2018-11-28T05:53:57.397Z,34.48
2018-11-28T05:54:35.125Z,34.45
2018-11-28T05:55:16.249Z,34.45
2018-11-28T05:55:53.946Z,34.48
2018-11-28T05:56:31.903Z,34.44
2018-11-28T05:57:10.018Z,34.42
2018-11-28T05:57:47.802Z,34.36
2018-11-28T05:58:25.519Z,34.34
2018-11-28T05:59:03.543Z,34.33
2018-11-28T05:59:41.407Z,34.35
2018-11-28T06:00:38.626Z,34.38
2018-11-28T06:01:16.572Z,34.36
2018-11-28T06:01:54.462Z,34.33
2018-11-28T06:02:32.320Z,34.36
2018-11-28T06:03:11.345Z,34.38
2018-11-28T06:03:49.118Z,34.40
2018-11-28T06:04:26.830Z,34.36
2018-11-28T06:05:04.775Z,34.33
2018-11-28T06:05:45.883Z,34.26
2018-11-28T06:06:26.493Z,34.22
2018-11-28T06:07:04.153Z,34.19
2018-11-28T06:07:41.858Z,34.18
2018-11-28T06:08:19.696Z,34.19
2018-11-28T06:08:57.564Z,34.20
2018-11-28T06:09:35.573Z,34.18
2018-11-28T06:10:13.460Z,34.20
2018-11-28T06:10:51.451Z,34.23
2018-11-28T06:11:29.370Z,34.24
2018-11-28T06:12:07.296Z,34.29
2018-11-28T06:12:45.168Z,34.30
2018-11-28T06:13:22.964Z,34.30
2018-11-28T06:14:00.631Z,34.26
2018-11-28T06:14:38.618Z,34.24
2018-11-28T06:15:16.821Z,34.28
2018-11-28T06:15:54.790Z,34.30
2018-11-28T06:16:32.476Z,34.21
2018-11-28T06:17:10.457Z,34.14
2018-11-28T06:17:48.287Z,34.07
2018-11-28T06:18:26.192Z,34.04
2018-11-28T06:19:04.047Z,34.03
2018-11-28T06:19:42.127Z,34.05
2018-11-28T06:20:20.332Z,34.03
2018-11-28T06:20:58.202Z,34.04
2018-11-28T06:21:36.145Z,34.02
2018-11-28T06:22:13.971Z,34.03
2018-11-28T06:22:51.739Z,34.02
2018-11-28T06:23:29.564Z,34.02
2018-11-28T06:24:07.290Z,34.01
2018-11-28T06:24:45.312Z,34.00
2018-11-28T06:25:23.210Z,34.00
2018-11-28T06:26:00.938Z,33.93
2018-11-28T06:26:38.761Z,33.90
2018-11-28T06:27:16.490Z,33.85
2018-11-28T06:27:54.445Z,33.82
2018-11-28T06:28:32.193Z,33.79
2018-11-28T06:29:10.294Z,33.71
2018-11-28T06:29:48.138Z,33.68
2018-11-28T06:30:25.901Z,33.64
2018-11-28T06:31:03.737Z,33.59
2018-11-28T06:31:41.422Z,33.55
2018-11-28T06:32:19.336Z,33.48
2018-11-28T06:32:57.093Z,33.45
2018-11-28T06:33:34.938Z,33.49
2018-11-28T06:34:12.904Z,33.56
2018-11-28T06:34:50.658Z,33.58
2018-11-28T06:35:28.709Z,33.52
2018-11-28T06:36:06.553Z,33.52
2018-11-28T06:36:44.383Z,33.50
2018-11-28T06:37:22.170Z,33.50
2018-11-28T06:37:59.971Z,33.47
2018-11-28T06:38:37.859Z,33.44
2018-11-28T06:39:15.662Z,33.42
2018-11-28T06:39:53.423Z,33.35
2018-11-28T06:40:31.393Z,33.33
2018-11-28T06:41:09.055Z,33.28
2018-11-28T06:41:46.793Z,33.27
2018-11-28T06:42:24.759Z,33.25
2018-11-28T06:43:02.520Z,33.20
2018-11-28T06:43:40.446Z,33.15
2018-11-28T06:44:18.348Z,33.13
2018-11-28T06:44:56.038Z,33.05
2018-11-28T06:45:33.985Z,33.04
2018-11-28T06:46:11.787Z,33.00
2018-11-28T06:46:49.517Z,32.97
2018-11-28T06:47:27.167Z,32.95
2018-11-28T06:48:04.933Z,32.93
2018-11-28T06:48:42.587Z,32.91
2018-11-28T06:49:20.489Z,32.85
2018-11-28T06:49:58.140Z,32.81
2018-11-28T06:50:36.100Z,32.76
2018-11-28T06:51:14.163Z,32.70
2018-11-28T06:51:51.977Z,32.71
2018-11-28T06:52:29.892Z,32.68
2018-11-28T06:53:07.729Z,32.66
2018-11-28T06:53:45.332Z,32.63
2018-11-28T06:54:23.010Z,32.62
2018-11-28T06:55:00.857Z,32.61
2018-11-28T06:55:38.581Z,32.57
2018-11-28T06:56:16.419Z,32.54
2018-11-28T06:56:54.121Z,32.54
2018-11-28T06:57:32.026Z,32.53
2018-11-28T06:58:09.885Z,32.53
2018-11-28T06:58:47.653Z,32.51
2018-11-28T06:59:25.589Z,32.49
2018-11-28T07:00:03.447Z,32.46
2018-11-28T07:00:41.381Z,32.48
2018-11-28T07:01:19.105Z,32.45
2018-11-28T07:01:56.795Z,32.44
2018-11-28T07:02:34.736Z,32.43
2018-11-28T07:03:12.539Z,32.41
2018-11-28T07:03:50.475Z,32.39
2018-11-28T07:04:28.307Z,32.39
2018-11-28T07:05:06.136Z,32.37
2018-11-28T07:05:43.848Z,32.37
2018-11-28T07:06:21.718Z,32.36
2018-11-28T07:06:59.623Z,32.36
2018-11-28T07:07:37.433Z,32.36
2018-11-28T07:08:19.138Z,32.36
2018-11-28T07:08:56.873Z,32.36
2018-11-28T07:09:34.650Z,32.35
2018-11-28T07:10:16.284Z,32.33
2018-11-28T07:10:54.415Z,32.32
2018-11-28T07:11:32.079Z,32.30
2018-11-28T07:12:09.831Z,32.30
2018-11-28T07:12:47.439Z,32.31
2018-11-28T07:13:25.320Z,32.28
2018-11-28T07:14:03.277Z,32.28
2018-11-28T07:14:41.089Z,32.28
2018-11-28T07:15:19.706Z,32.28
2018-11-28T07:15:57.657Z,32.29
2018-11-28T07:16:35.392Z,32.28
2018-11-28T07:17:13.353Z,32.28
2018-11-28T07:17:54.359Z,32.29
2018-11-28T07:19:18.951Z,32.29
2018-11-28T07:19:56.896Z,32.29
2018-11-28T07:20:34.866Z,32.27
2018-11-28T07:21:12.726Z,32.28
2018-11-28T07:21:50.493Z,32.27
2018-11-28T07:22:28.515Z,32.26
2018-11-28T07:23:06.235Z,32.27
2018-11-28T07:23:44.058Z,32.22
2018-11-28T07:24:21.866Z,32.17
2018-11-28T07:24:59.583Z,32.19
2018-11-28T07:25:37.436Z,32.16
2018-11-28T07:26:15.329Z,32.16
2018-11-28T07:26:53.043Z,32.13
2018-11-28T07:27:30.826Z,32.15
2018-11-28T07:28:08.577Z,32.14
2018-11-28T07:28:46.267Z,32.13
2018-11-28T07:29:24.109Z,32.14
2018-11-28T07:30:01.866Z,32.09
2018-11-28T07:30:39.800Z,32.10
2018-11-28T07:31:17.613Z,32.11
2018-11-28T07:31:55.495Z,32.10
2018-11-28T07:32:33.322Z,32.09
2018-11-28T07:33:11.522Z,32.06
2018-11-28T07:33:49.413Z,32.05
2018-11-28T07:34:27.330Z,32.06
2018-11-28T07:35:05.086Z,32.04
2018-11-28T07:35:43.900Z,32.03
2018-11-28T07:36:21.762Z,31.99
2018-11-28T07:36:59.637Z,31.99
2018-11-28T07:37:37.608Z,31.99
2018-11-28T07:38:15.359Z,31.97
2018-11-28T07:38:54.202Z,31.97
2018-11-28T07:39:32.143Z,31.96
2018-11-28T07:40:13.436Z,31.96
2018-11-28T07:40:51.168Z,31.94
2018-11-28T07:41:29.662Z,31.93
2018-11-28T07:42:07.443Z,31.92
2018-11-28T07:42:46.797Z,31.91
2018-11-28T07:43:24.699Z,31.92
2018-11-28T07:44:02.695Z,31.89
2018-11-28T07:44:41.024Z,31.88
2018-11-28T07:45:18.947Z,31.88
2018-11-28T07:45:57.087Z,31.85
2018-11-28T07:46:34.971Z,31.82
2018-11-28T07:47:12.909Z,31.83
2018-11-28T07:47:50.597Z,31.82
2018-11-28T07:48:28.470Z,31.82
2018-11-28T07:49:06.374Z,31.82
2018-11-28T07:49:44.461Z,31.81
2018-11-28T07:50:22.322Z,31.81
2018-11-28T07:51:00.364Z,31.78
2018-11-28T07:51:38.202Z,31.79
2018-11-28T07:52:15.969Z,31.75
2018-11-28T07:52:53.952Z,31.74
2018-11-28T07:53:31.835Z,31.75
2018-11-28T07:54:10.433Z,31.73
2018-11-28T07:54:48.215Z,31.73
2018-11-28T07:55:26.095Z,31.74
2018-11-28T07:56:03.946Z,31.70
2018-11-28T07:56:41.807Z,31.69
2018-11-28T07:57:19.577Z,31.68
2018-11-28T07:57:57.362Z,31.68
2018-11-28T07:58:35.248Z,31.67
2018-11-28T07:59:13.073Z,31.68
2018-11-28T07:59:50.892Z,31.68
2018-11-28T08:00:28.773Z,31.67
2018-11-28T08:01:06.702Z,31.70
2018-11-28T08:01:44.775Z,31.71
2018-11-28T08:02:22.740Z,31.72
2018-11-28T08:03:00.566Z,31.71
2018-11-28T08:03:38.776Z,31.72
2018-11-28T08:04:17.074Z,31.71
2018-11-28T08:04:55.341Z,31.72
2018-11-28T08:05:33.162Z,31.72
2018-11-28T08:06:11.033Z,31.71
2018-11-28T08:06:49.162Z,31.70
2018-11-28T08:07:26.863Z,31.70
2018-11-28T08:08:04.878Z,31.70
2018-11-28T08:08:42.601Z,31.70
2018-11-28T08:09:20.488Z,31.70
2018-11-28T08:09:58.206Z,31.71
2018-11-28T08:10:36.617Z,31.70
2018-11-28T08:11:14.524Z,31.70
2018-11-28T08:11:52.378Z,31.70
2018-11-28T08:12:30.110Z,31.72
2018-11-28T08:13:08.194Z,31.73